createdAt,value
2022-09-14T00:00:07.121Z,95606.78
2022-09-14T00:02:34.839Z,95607.38
2022-09-14T00:05:02.566Z,95606.25
2022-09-14T00:07:40.283Z,95600.63
2022-09-14T00:10:12.488Z,95591.59
2022-09-14T00:12:40.036Z,95617.00
2022-09-14T00:15:13.315Z,95588.97
2022-09-14T00:17:40.930Z,95577.31
2022-09-14T00:20:08.973Z,95576.56
2022-09-14T00:22:36.943Z,95576.75
2022-09-14T00:25:06.926Z,95578.47
2022-09-14T00:27:36.268Z,95569.81
2022-09-14T00:30:06.335Z,95566.19
2022-09-14T00:32:43.943Z,95564.16
2022-09-14T00:35:11.497Z,95563.47
2022-09-14T00:37:44.624Z,95561.28
2022-09-14T00:40:20.651Z,95551.06
2022-09-14T00:42:52.979Z,95546.63
2022-09-14T00:45:21.267Z,95542.63
2022-09-14T00:47:49.544Z,95540.50
2022-09-14T00:50:17.461Z,95531.50
2022-09-14T00:52:49.221Z,95528.09
2022-09-14T00:55:20.950Z,95525.41
2022-09-14T00:57:53.645Z,95505.75
2022-09-14T01:00:22.476Z,95496.34
2022-09-14T01:02:52.151Z,95502.94
2022-09-14T01:05:22.630Z,95499.94
2022-09-14T01:07:56.917Z,95495.28
2022-09-14T01:10:28.686Z,95495.22
2022-09-14T01:13:02.918Z,95495.22
2022-09-14T01:15:32.702Z,95490.09
2022-09-14T01:18:02.396Z,95488.53
2022-09-14T01:20:32.143Z,95492.88
2022-09-14T01:23:07.512Z,95518.72
2022-09-14T01:25:38.705Z,95583.06
2022-09-14T01:28:08.717Z,95603.16
2022-09-14T01:30:44.550Z,95639.81
2022-09-14T01:33:13.636Z,95662.63
2022-09-14T01:35:42.208Z,95572.13
2022-09-14T01:38:10.581Z,95558.84
2022-09-14T01:40:38.685Z,95623.06
2022-09-14T01:43:10.906Z,95609.19
2022-09-14T01:45:43.171Z,95566.16
2022-09-14T01:48:14.176Z,95565.63
2022-09-14T01:50:45.005Z,95587.81
2022-09-14T01:53:14.315Z,95590.38
2022-09-14T01:55:49.671Z,95589.44
2022-09-14T01:58:18.606Z,95600.72
2022-09-14T02:01:02.411Z,95592.19
2022-09-14T02:03:33.271Z,95586.69
2022-09-14T02:06:01.499Z,95581.69
2022-09-14T02:08:34.269Z,95585.50
2022-09-14T02:11:02.272Z,95593.78
2022-09-14T02:13:31.666Z,95574.63
2022-09-14T02:16:06.633Z,95552.69
2022-09-14T02:18:34.787Z,95554.59
2022-09-14T02:21:04.371Z,95553.88
2022-09-14T02:23:32.768Z,95565.84
2022-09-14T02:26:01.838Z,95566.75
2022-09-14T02:28:29.631Z,95572.00
2022-09-14T02:31:04.511Z,95566.94
2022-09-14T02:33:35.075Z,95584.84
2022-09-14T02:36:05.617Z,95589.63
2022-09-14T02:38:34.990Z,95593.41
2022-09-14T02:41:04.116Z,95586.28
2022-09-14T02:43:34.387Z,95584.25
2022-09-14T02:46:06.103Z,95573.00
2022-09-14T02:48:38.019Z,95553.25
2022-09-14T02:51:07.706Z,95561.81
2022-09-14T02:53:39.246Z,95561.03
2022-09-14T02:56:07.982Z,95553.88
2022-09-14T02:58:36.623Z,95555.38
2022-09-14T03:01:09.284Z,95560.47
2022-09-14T03:03:37.291Z,95550.63
2022-09-14T03:06:05.611Z,95548.84
2022-09-14T03:08:33.523Z,95534.06
2022-09-14T03:11:01.079Z,95522.03
2022-09-14T03:13:30.787Z,95520.94
2022-09-14T03:16:01.711Z,95519.47
2022-09-14T03:18:33.875Z,95528.16
2022-09-14T03:21:07.804Z,95507.25
2022-09-14T03:23:38.964Z,95492.31
2022-09-14T03:26:10.596Z,95505.94
2022-09-14T03:28:38.216Z,95504.47
2022-09-14T03:31:06.602Z,95509.63
2022-09-14T03:36:19.620Z,95509.03
2022-09-14T03:38:49.147Z,95509.44
2022-09-14T03:41:17.547Z,95512.72
2022-09-14T03:43:46.192Z,95490.94
2022-09-14T03:46:14.658Z,95495.06
2022-09-14T03:48:47.538Z,95488.50
2022-09-14T03:51:16.018Z,95482.72
2022-09-14T03:53:45.065Z,95486.78
2022-09-14T03:56:17.664Z,95485.06
2022-09-14T03:58:46.846Z,95483.34
2022-09-14T04:01:16.190Z,95477.06
2022-09-14T04:03:45.735Z,95477.06
2022-09-14T04:06:14.192Z,95481.31
2022-09-14T04:08:42.175Z,95469.31
2022-09-14T04:11:10.993Z,95469.06
2022-09-14T04:13:41.344Z,95451.31
2022-09-14T04:16:11.698Z,95455.72
2022-09-14T04:18:39.713Z,95456.63
2022-09-14T04:21:12.106Z,95468.91
2022-09-14T04:24:02.933Z,95472.47
2022-09-14T04:26:28.585Z,95472.38
2022-09-14T04:28:56.675Z,95459.09
2022-09-14T04:31:24.816Z,95459.97
2022-09-14T04:33:54.977Z,95458.63
2022-09-14T04:36:25.933Z,95469.56
2022-09-14T04:38:56.280Z,95475.28
2022-09-14T04:41:27.324Z,95474.25
2022-09-14T04:43:55.846Z,95484.34
2022-09-14T04:46:24.273Z,95490.53
2022-09-14T04:48:55.192Z,95486.41
2022-09-14T04:51:25.251Z,95484.53
2022-09-14T04:53:53.557Z,95526.25
2022-09-14T04:56:24.562Z,95498.19
2022-09-14T04:58:53.422Z,95495.16
2022-09-14T05:01:21.931Z,95494.84
2022-09-14T05:03:49.929Z,95489.69
2022-09-14T05:06:20.871Z,95498.16
2022-09-14T05:08:50.818Z,95509.34
2022-09-14T05:11:22.406Z,95498.28
2022-09-14T05:13:51.098Z,95495.63
2022-09-14T05:16:20.665Z,95492.59
2022-09-14T05:18:49.313Z,95495.28
2022-09-14T05:21:20.916Z,95493.03
2022-09-14T05:23:54.279Z,95500.66
2022-09-14T05:26:25.075Z,95498.09
2022-09-14T05:28:53.821Z,95506.91
2022-09-14T05:31:21.642Z,95497.63
2022-09-14T05:33:49.777Z,95508.38
2022-09-14T05:36:17.613Z,95515.97
2022-09-14T05:38:45.483Z,95517.72
2022-09-14T05:41:15.218Z,95516.19
2022-09-14T05:43:43.617Z,95512.16
2022-09-14T05:46:12.014Z,95508.25
2022-09-14T05:48:42.820Z,95503.13
2022-09-14T05:51:11.981Z,95497.75
2022-09-14T05:53:39.559Z,95494.25
2022-09-14T05:56:08.291Z,95483.94
2022-09-14T05:58:39.214Z,95490.47
2022-09-14T06:01:10.517Z,95486.81
2022-09-14T06:03:38.165Z,95501.16
2022-09-14T06:06:06.447Z,95499.34
2022-09-14T06:08:37.176Z,95504.59
2022-09-14T06:11:05.082Z,95515.16
2022-09-14T06:13:33.107Z,95506.63
2022-09-14T06:16:14.886Z,95520.84
2022-09-14T06:18:43.746Z,95514.31
2022-09-14T06:21:17.732Z,95517.31
2022-09-14T06:23:48.293Z,95521.88
2022-09-14T06:26:16.933Z,95522.22
2022-09-14T06:28:45.073Z,95522.38
2022-09-14T06:31:15.169Z,95518.63
2022-09-14T06:33:44.669Z,95525.22
2022-09-14T06:36:13.595Z,95522.16
2022-09-14T06:38:42.196Z,95511.63
2022-09-14T06:41:12.264Z,95508.25
2022-09-14T06:43:40.388Z,95506.91
2022-09-14T06:46:11.771Z,95512.25
2022-09-14T06:48:41.973Z,95508.97
2022-09-14T06:51:13.393Z,95503.75
2022-09-14T06:53:41.072Z,95498.13
2022-09-14T06:56:08.925Z,95499.91
2022-09-14T06:58:37.009Z,95492.75
2022-09-14T07:01:05.435Z,95501.75
2022-09-14T07:03:33.421Z,95508.06
2022-09-14T07:06:07.582Z,95504.06
2022-09-14T07:08:35.863Z,95504.59
2022-09-14T07:11:04.001Z,95515.22
2022-09-14T07:13:32.110Z,95504.44
2022-09-14T07:16:00.097Z,95510.78
2022-09-14T07:18:29.136Z,95521.03
2022-09-14T07:20:59.582Z,95524.47
2022-09-14T07:23:31.642Z,95519.84
2022-09-14T07:26:03.124Z,95531.19
2022-09-14T07:28:33.037Z,95523.13
2022-09-14T07:31:01.346Z,95523.94
2022-09-14T07:33:30.801Z,95518.78
2022-09-14T07:36:05.904Z,95526.59
2022-09-14T07:38:51.636Z,95515.41
2022-09-14T07:41:24.939Z,95525.19
2022-09-14T07:43:53.032Z,95514.81
2022-09-14T07:46:22.466Z,95525.47
2022-09-14T07:49:01.356Z,95529.06
2022-09-14T07:51:29.850Z,95540.44
2022-09-14T07:54:00.830Z,95540.53
2022-09-14T07:56:30.753Z,95538.09
2022-09-14T07:59:17.271Z,95543.22
2022-09-14T08:01:47.670Z,95542.84
2022-09-14T08:04:15.357Z,95541.06
2022-09-14T08:06:43.507Z,95549.47
2022-09-14T08:09:16.741Z,95559.97
2022-09-14T08:11:44.899Z,95568.47
2022-09-14T08:14:14.254Z,95562.66
2022-09-14T08:16:49.519Z,95549.81
2022-09-14T08:19:18.502Z,95564.50
2022-09-14T08:21:48.763Z,95570.59
2022-09-14T08:24:18.734Z,95577.53
2022-09-14T08:26:46.960Z,95577.53
2022-09-14T08:29:15.062Z,95586.16
2022-09-14T08:31:46.349Z,95597.06
2022-09-14T08:34:16.191Z,95593.69
2022-09-14T08:36:48.700Z,95591.53
2022-09-14T08:39:19.406Z,95600.00
2022-09-14T08:41:49.565Z,95593.44
2022-09-14T08:44:25.967Z,95599.75
2022-09-14T08:46:55.705Z,95608.28
2022-09-14T08:49:30.147Z,95614.03
2022-09-14T08:51:59.418Z,95608.59
2022-09-14T08:54:28.742Z,95610.69
2022-09-14T08:56:59.947Z,95605.34
2022-09-14T08:59:35.554Z,95596.53
2022-09-14T09:02:06.921Z,95587.31
2022-09-14T09:04:37.678Z,95587.44
2022-09-14T09:07:09.785Z,95587.28
2022-09-14T09:09:41.494Z,95581.09
2022-09-14T09:12:10.641Z,95584.09
2022-09-14T09:14:40.213Z,95587.56
2022-09-14T09:17:11.682Z,95597.66
2022-09-14T09:19:40.310Z,95614.72
2022-09-14T09:22:15.873Z,95613.22
2022-09-14T09:24:47.400Z,95608.38
2022-09-14T09:27:16.876Z,95589.13
2022-09-14T09:29:45.011Z,95595.06
2022-09-14T09:32:14.651Z,95580.66
2022-09-14T09:34:42.633Z,95577.72
2022-09-14T09:37:13.025Z,95578.31
2022-09-14T09:39:43.221Z,95580.44
2022-09-14T09:42:20.049Z,95562.75
2022-09-14T09:45:02.551Z,95570.13
2022-09-14T09:47:35.231Z,95556.88
2022-09-14T09:50:03.825Z,95544.81
2022-09-14T09:52:33.045Z,95529.09
2022-09-14T09:55:01.292Z,95534.28
2022-09-14T09:57:31.953Z,95534.22
2022-09-14T10:00:21.731Z,95538.88
2022-09-14T10:02:53.303Z,95412.38
2022-09-14T10:05:22.959Z,95517.06
2022-09-14T10:07:53.669Z,95518.56
2022-09-14T10:10:22.439Z,95524.75
2022-09-14T10:12:55.636Z,95526.94
2022-09-14T10:15:25.744Z,95511.97
2022-09-14T10:18:02.050Z,95525.41
2022-09-14T10:20:29.845Z,95517.81
2022-09-14T10:22:58.440Z,95182.50
2022-09-14T10:25:29.050Z,95506.69
2022-09-14T10:28:01.747Z,95496.97
2022-09-14T10:30:30.073Z,95480.75
2022-09-14T10:32:59.210Z,95480.47
2022-09-14T10:35:40.367Z,95478.34
2022-09-14T10:38:17.435Z,95472.59
2022-09-14T10:40:46.027Z,95465.28
2022-09-14T10:43:17.138Z,95464.66
2022-09-14T10:45:49.845Z,95457.56
2022-09-14T10:48:21.779Z,95456.63
2022-09-14T10:50:54.085Z,95448.56
2022-09-14T10:53:29.966Z,95431.78
2022-09-14T10:56:04.051Z,95429.78
2022-09-14T10:58:40.570Z,95423.75
2022-09-14T11:01:14.521Z,95425.31
2022-09-14T11:03:48.612Z,95424.63
2022-09-14T11:06:21.905Z,95430.84
2022-09-14T11:08:54.088Z,95426.47
2022-09-14T11:11:28.822Z,95423.03
2022-09-14T11:14:04.055Z,95414.13
2022-09-14T11:16:40.853Z,95415.53
2022-09-14T11:19:10.498Z,95408.81
2022-09-14T11:21:45.052Z,95406.72
2022-09-14T11:24:15.395Z,95411.09
2022-09-14T11:26:45.018Z,95416.53
2022-09-14T11:29:18.084Z,95427.06
2022-09-14T11:32:04.170Z,95419.84
2022-09-14T11:34:38.861Z,95415.28
2022-09-14T11:37:07.940Z,95416.25
2022-09-14T11:39:39.927Z,95408.38
2022-09-14T11:42:10.724Z,95417.81
2022-09-14T11:44:40.681Z,95414.09
2022-09-14T11:47:08.890Z,95411.44
2022-09-14T11:49:49.746Z,95401.59
2022-09-14T11:52:19.766Z,95416.31
2022-09-14T11:54:47.980Z,95408.69
2022-09-14T11:57:20.485Z,95411.66
2022-09-14T11:59:51.379Z,95413.56
2022-09-14T12:02:49.327Z,95415.78
2022-09-14T12:05:33.930Z,95428.97
2022-09-14T12:08:07.155Z,95420.84
2022-09-14T12:10:50.222Z,95432.19
2022-09-14T12:13:21.405Z,95439.47
2022-09-14T12:15:50.835Z,95435.38
2022-09-14T12:18:22.952Z,95422.69
2022-09-14T12:20:56.799Z,95430.84
2022-09-14T12:23:28.632Z,95431.50
2022-09-14T12:25:59.476Z,95442.41
2022-09-14T12:28:30.712Z,95446.47
2022-09-14T12:31:33.129Z,95455.91
2022-09-14T12:34:07.018Z,95472.97
2022-09-14T12:36:55.227Z,95485.41
2022-09-14T12:39:27.876Z,95503.31
2022-09-14T12:42:13.310Z,95510.22
2022-09-14T12:44:41.537Z,95518.03
2022-09-14T12:47:28.688Z,95515.94
2022-09-14T12:50:12.071Z,95501.81
2022-09-14T12:52:43.592Z,95495.91
2022-09-14T12:55:23.990Z,95495.53
2022-09-14T12:57:53.486Z,95493.00
2022-09-14T13:00:26.746Z,95491.84
2022-09-14T13:03:00.073Z,95496.25
2022-09-14T13:05:30.700Z,95517.19
2022-09-14T13:07:58.587Z,95510.78
2022-09-14T13:10:28.745Z,95524.84
2022-09-14T13:12:56.418Z,95542.09
2022-09-14T13:15:26.010Z,95533.19
2022-09-14T13:17:58.084Z,95527.75
2022-09-14T13:20:26.041Z,95537.91
2022-09-14T13:22:57.075Z,95526.06
2022-09-14T13:25:29.427Z,95528.22
2022-09-14T13:27:57.549Z,95531.34
2022-09-14T13:30:26.386Z,95533.53
2022-09-14T13:32:56.333Z,95520.47
2022-09-14T13:35:29.174Z,95527.81
2022-09-14T13:37:59.718Z,95522.78
2022-09-14T13:40:29.610Z,95515.34
2022-09-14T13:42:57.533Z,95508.72
2022-09-14T13:45:27.365Z,95502.84
2022-09-14T13:47:55.109Z,95494.72
2022-09-14T13:50:29.619Z,95482.97
2022-09-14T13:53:03.933Z,95476.31
2022-09-14T13:55:43.973Z,95473.53
2022-09-14T13:58:16.054Z,95480.00
2022-09-14T14:00:48.249Z,95475.59
2022-09-14T14:03:23.785Z,95463.81
2022-09-14T14:05:51.887Z,95464.09
2022-09-14T14:08:26.577Z,95466.81
2022-09-14T14:10:57.444Z,95463.94
2022-09-14T14:13:28.045Z,95457.28
2022-09-14T14:15:58.236Z,95451.53
2022-09-14T14:18:33.175Z,95455.59
2022-09-14T14:21:12.023Z,95451.88
2022-09-14T14:23:56.706Z,95464.06
2022-09-14T14:26:30.279Z,95465.72
2022-09-14T14:29:08.341Z,95476.16
2022-09-14T14:31:35.949Z,95480.84
2022-09-14T14:34:14.068Z,95489.31
2022-09-14T14:36:41.691Z,95491.75
2022-09-14T14:39:11.828Z,95494.28
2022-09-14T14:41:40.651Z,95278.00
2022-09-14T14:44:08.367Z,95499.75
2022-09-14T14:46:39.310Z,95498.94
2022-09-14T14:49:09.383Z,95505.56
2022-09-14T14:51:45.012Z,95501.75
2022-09-14T14:54:16.337Z,95493.50
2022-09-14T14:56:44.562Z,95497.56
2022-09-14T14:59:39.871Z,95485.00
2022-09-14T15:02:07.493Z,95485.28
2022-09-14T15:04:38.770Z,95468.31
2022-09-14T15:07:06.478Z,95462.78
2022-09-14T15:09:35.590Z,95456.34
2022-09-14T15:12:03.718Z,95453.31
2022-09-14T15:14:31.609Z,95439.44
2022-09-14T15:17:03.492Z,95434.75
2022-09-14T15:19:32.976Z,95435.41
2022-09-14T15:22:01.832Z,95418.75
2022-09-14T15:24:29.931Z,95418.22
2022-09-14T15:27:04.329Z,95409.19
2022-09-14T15:29:34.694Z,95414.72
2022-09-14T15:32:02.403Z,95410.41
2022-09-14T15:34:33.058Z,95406.69
2022-09-14T15:37:03.467Z,95387.44
2022-09-14T15:39:31.595Z,95373.50
2022-09-14T15:42:00.626Z,95379.56
2022-09-14T15:44:32.329Z,95385.28
2022-09-14T15:47:01.294Z,95388.50
2022-09-14T15:49:32.316Z,95379.31
2022-09-14T15:52:00.209Z,95381.47
2022-09-14T15:54:31.917Z,95380.00
2022-09-14T15:57:01.779Z,95364.94
2022-09-14T15:59:29.460Z,95365.50
2022-09-14T16:01:57.585Z,95360.19
2022-09-14T16:04:25.177Z,95347.25
2022-09-14T16:06:53.094Z,95345.56
2022-09-14T16:09:25.270Z,95351.41
2022-09-14T16:11:53.111Z,95340.13
2022-09-14T16:14:24.746Z,95335.19
2022-09-14T16:16:52.887Z,95342.09
2022-09-14T16:19:21.046Z,95354.00
2022-09-14T16:21:53.717Z,95368.47
2022-09-14T16:24:22.119Z,95377.41
2022-09-14T16:26:51.011Z,95391.88
2022-09-14T16:29:19.715Z,95368.44
2022-09-14T16:31:51.488Z,95369.75
2022-09-14T16:34:20.891Z,95384.75
2022-09-14T16:36:48.788Z,95385.63
2022-09-14T16:39:17.598Z,95378.88
2022-09-14T16:41:46.456Z,95380.84
2022-09-14T16:44:14.811Z,95384.56
2022-09-14T16:46:44.740Z,95387.53
2022-09-14T16:49:13.966Z,95387.13
2022-09-14T16:51:41.901Z,95391.28
2022-09-14T16:54:09.883Z,95394.19
2022-09-14T16:56:38.298Z,95387.00
2022-09-14T16:59:06.150Z,95391.25
2022-09-14T17:01:34.239Z,95395.78
2022-09-14T17:04:06.391Z,95401.84
2022-09-14T17:06:38.050Z,95402.72
2022-09-14T17:09:06.726Z,95410.72
2022-09-14T17:11:37.671Z,95421.47
2022-09-14T17:14:05.866Z,95416.78
2022-09-14T17:16:34.068Z,95410.66
2022-09-14T17:19:02.559Z,95414.72
2022-09-14T17:21:31.354Z,95416.41
2022-09-14T17:24:01.486Z,95415.69
2022-09-14T17:26:29.580Z,95428.16
2022-09-14T17:28:58.382Z,95420.50
2022-09-14T17:31:28.747Z,95420.34
2022-09-14T17:33:57.031Z,95419.50
2022-09-14T17:36:25.306Z,95416.75
2022-09-14T17:38:56.381Z,95418.75
2022-09-14T17:41:28.495Z,95414.84
2022-09-14T17:44:10.292Z,95406.41
2022-09-14T17:46:45.976Z,95400.16
2022-09-14T17:49:20.538Z,95408.50
2022-09-14T17:51:51.177Z,95410.78
2022-09-14T17:54:19.138Z,95412.59
2022-09-14T17:56:48.834Z,95404.28
2022-09-14T17:59:19.888Z,95416.41
2022-09-14T18:02:06.653Z,95408.94
2022-09-14T18:04:35.388Z,95194.13
2022-09-14T18:07:04.543Z,95422.38
2022-09-14T18:09:32.159Z,95423.34
2022-09-14T18:12:04.850Z,95420.19
2022-09-14T18:14:33.914Z,95424.91
2022-09-14T18:17:04.379Z,95429.25
2022-09-14T18:19:32.819Z,95426.34
2022-09-14T18:22:01.778Z,95433.72
2022-09-14T18:24:29.678Z,95429.88
2022-09-14T18:26:57.327Z,95420.19
2022-09-14T18:29:27.729Z,95416.44
2022-09-14T18:31:55.467Z,95421.81
2022-09-14T18:34:26.310Z,95423.91
2022-09-14T18:36:54.107Z,95423.41
2022-09-14T18:39:21.698Z,95425.16
2022-09-14T18:41:51.046Z,95422.50
2022-09-14T18:44:18.888Z,95425.06
2022-09-14T18:46:48.673Z,95420.00
2022-09-14T18:49:16.891Z,95414.97
2022-09-14T18:51:48.832Z,95411.59
2022-09-14T18:54:16.537Z,95418.66
2022-09-14T18:56:46.764Z,95418.94
2022-09-14T18:59:15.245Z,95420.75
2022-09-14T19:01:45.438Z,95426.22
2022-09-14T19:04:15.913Z,95420.59
2022-09-14T19:06:44.622Z,95423.31
2022-09-14T19:09:15.248Z,95429.19
2022-09-14T19:11:43.159Z,95424.25
2022-09-14T19:14:11.706Z,95424.69
2022-09-14T19:16:42.306Z,95431.00
2022-09-14T19:19:14.105Z,95458.03
2022-09-14T19:21:43.493Z,95415.78
2022-09-14T19:24:11.948Z,95419.53
2022-09-14T19:26:45.232Z,95421.56
2022-09-14T19:29:13.772Z,95431.28
2022-09-14T19:31:44.485Z,95423.72
2022-09-14T19:34:12.669Z,95417.09
2022-09-14T19:36:42.940Z,95417.84
2022-09-14T19:39:11.936Z,95427.56
2022-09-14T19:41:40.822Z,95417.25
2022-09-14T19:44:09.986Z,95423.91
2022-09-14T19:46:39.717Z,95441.41
2022-09-14T19:49:07.852Z,95438.72
2022-09-14T19:51:35.821Z,95447.69
2022-09-14T19:54:03.380Z,95439.88
2022-09-14T19:56:33.742Z,95454.00
2022-09-14T19:59:04.107Z,95460.13
2022-09-14T20:01:32.928Z,95468.63
2022-09-14T20:04:00.686Z,95470.34
2022-09-14T20:06:31.427Z,95466.88
2022-09-14T20:08:59.578Z,95464.56
2022-09-14T20:11:28.109Z,95462.13
2022-09-14T20:13:57.874Z,95471.09
2022-09-14T20:16:26.091Z,95470.00
2022-09-14T20:18:54.095Z,95473.59
2022-09-14T20:21:22.739Z,95478.13
2022-09-14T20:24:14.721Z,95474.31
2022-09-14T20:26:41.870Z,95474.47
2022-09-14T20:29:11.124Z,95469.19
2022-09-14T20:31:39.891Z,95470.53
2022-09-14T20:34:07.827Z,95469.97
2022-09-14T20:36:35.386Z,95467.72
2022-09-14T20:39:06.940Z,95471.47
2022-09-14T20:41:35.748Z,95461.69
2022-09-14T20:44:07.373Z,95469.59
2022-09-14T20:46:38.508Z,95473.28
2022-09-14T20:49:07.637Z,95470.03
2022-09-14T20:51:37.614Z,95479.56
2022-09-14T20:54:05.492Z,95485.94
2022-09-14T20:56:33.600Z,95484.03
2022-09-14T20:59:02.031Z,95486.91
2022-09-14T21:01:32.798Z,95486.16
2022-09-14T21:04:07.252Z,95481.66
2022-09-14T21:06:38.077Z,95484.28
2022-09-14T21:09:05.979Z,95472.78
2022-09-14T21:11:34.445Z,95474.50
2022-09-14T21:14:02.374Z,95478.75
2022-09-14T21:16:31.364Z,95478.63
2022-09-14T21:19:00.164Z,95477.34
2022-09-14T21:21:29.980Z,95476.00
2022-09-14T21:23:59.709Z,95475.72
2022-09-14T21:26:30.686Z,95470.81
2022-09-14T21:29:01.423Z,95466.22
2022-09-14T21:31:32.064Z,95465.78
2022-09-14T21:34:02.772Z,95463.31
2022-09-14T21:36:34.584Z,95459.06
2022-09-14T21:39:09.866Z,95457.72
2022-09-14T21:41:41.778Z,95459.41
2022-09-14T21:44:20.353Z,95448.81
2022-09-14T21:46:47.941Z,95463.22
2022-09-14T21:49:16.081Z,95456.06
2022-09-14T21:51:46.908Z,95459.53
2022-09-14T21:54:14.614Z,95455.47
2022-09-14T21:56:42.870Z,95458.09
2022-09-14T21:59:11.677Z,95447.47
2022-09-14T22:01:39.288Z,95455.94
2022-09-14T22:04:07.991Z,95449.47
2022-09-14T22:06:37.968Z,95450.75
2022-09-14T22:09:07.669Z,95452.50
2022-09-14T22:11:37.775Z,95461.84
2022-09-14T22:14:07.823Z,95464.09
2022-09-14T22:16:37.895Z,95468.06
2022-09-14T22:19:07.212Z,95468.94
2022-09-14T22:21:35.574Z,95475.97
2022-09-14T22:24:03.949Z,95475.72
2022-09-14T22:26:33.674Z,95476.16
2022-09-14T22:29:01.781Z,95468.25
2022-09-14T22:31:30.240Z,95468.13
2022-09-14T22:33:58.345Z,95464.91
2022-09-14T22:36:29.014Z,95484.25
2022-09-14T22:38:57.140Z,95494.38
2022-09-14T22:41:26.028Z,95485.00
2022-09-14T22:43:55.614Z,95486.22
2022-09-14T22:46:26.641Z,95492.19
2022-09-14T22:48:54.764Z,95489.97
2022-09-14T22:51:27.662Z,95498.31
2022-09-14T22:53:57.317Z,95507.25
2022-09-14T22:56:25.705Z,95504.97
2022-09-14T22:58:53.404Z,95516.25
2022-09-14T23:01:23.474Z,95503.38
2022-09-14T23:03:52.683Z,95507.69
2022-09-14T23:06:21.944Z,95512.69
2022-09-14T23:08:50.835Z,95506.44
2022-09-14T23:11:18.647Z,95510.97
2022-09-14T23:13:46.237Z,95508.66
2022-09-14T23:16:14.776Z,95508.38
2022-09-14T23:18:44.221Z,95512.03
2022-09-14T23:21:13.161Z,95502.53
2022-09-14T23:23:53.359Z,95511.28
2022-09-14T23:26:21.078Z,95512.94
2022-09-14T23:28:54.888Z,95513.94
2022-09-14T23:31:24.050Z,95516.59
2022-09-14T23:33:55.253Z,95507.00
2022-09-14T23:36:24.094Z,95492.72
2022-09-14T23:38:55.748Z,95505.75
2022-09-14T23:41:26.486Z,95510.34
2022-09-14T23:43:54.077Z,95512.38
2022-09-14T23:46:22.478Z,95508.44
2022-09-14T23:48:50.278Z,95504.00
2022-09-14T23:51:25.014Z,95502.00
2022-09-14T23:53:53.190Z,95497.75
2022-09-14T23:56:20.968Z,95490.91
2022-09-14T23:58:50.210Z,95498.06
